Watersmeet, Michigan
Current Conditions -  °F | °C
As of 11:55 PM on Wednesday 22 Oct 2014 (Local Time) from KLNL Reporting Station
Scattered Clouds Scattered Clouds  
Wind Chill: 39°   Ceiling: Unl
Heat Index: 43°   Visibility: 10mi
Dew Point: 35°   Wind: 7mph
Humidity: 75%   Direction: 160°SSE
Pressure: 30.14"   Gusts: NA
Location:  46.27°N, 89.18°W
Report Text: KLNL 230455Z AUTO 16006KT 10SM SCT060 SCT070 06/02 A3014 RMK AO2 T00600018
Loading
Personal Weather Stations






























Interactive Weather Map
Tropical Storm Tracking
New forecast layout! Learn more

10-Day Weather Forecast

Advertisements
Track Severe Weather on mobile